sensor_id;sensor_type;location;lat;lon;timestamp;temperature;humidity
30308;DHT22;17114;52.314;8.910;2023-02-19T00:01:34;9.10;99.90
30308;DHT22;17114;52.314;8.910;2023-02-19T00:04:22;9.10;99.90
30308;DHT22;17114;52.314;8.910;2023-02-19T00:06:49;9.10;99.90
30308;DHT22;17114;52.314;8.910;2023-02-19T00:09:17;9.00;99.90
30308;DHT22;17114;52.314;8.910;2023-02-19T00:11:45;9.10;99.90
30308;DHT22;17114;52.314;8.910;2023-02-19T00:14:22;9.00;99.90
30308;DHT22;17114;52.314;8.910;2023-02-19T00:16:49;9.10;99.90
30308;DHT22;17114;52.314;8.910;2023-02-19T00:19:18;9.20;99.90
30308;DHT22;17114;52.314;8.910;2023-02-19T00:21:45;9.10;99.90
30308;DHT22;17114;52.314;8.910;2023-02-19T00:24:13;9.10;99.90
30308;DHT22;17114;52.314;8.910;2023-02-19T00:26:41;9.10;99.90
30308;DHT22;17114;52.314;8.910;2023-02-19T00:29:12;9.10;99.90
30308;DHT22;17114;52.314;8.910;2023-02-19T00:31:39;9.30;99.90
30308;DHT22;17114;52.314;8.910;2023-02-19T00:34:07;9.10;99.90
30308;DHT22;17114;52.314;8.910;2023-02-19T00:36:37;9.10;99.90
30308;DHT22;17114;52.314;8.910;2023-02-19T00:39:06;9.10;99.90
30308;DHT22;17114;52.314;8.910;2023-02-19T00:41:33;9.10;99.90
30308;DHT22;17114;52.314;8.910;2023-02-19T00:44:05;9.10;99.90
30308;DHT22;17114;52.314;8.910;2023-02-19T00:46:35;9.10;99.90
30308;DHT22;17114;52.314;8.910;2023-02-19T00:49:04;9.10;99.90
30308;DHT22;17114;52.314;8.910;2023-02-19T00:51:34;9.10;99.90
30308;DHT22;17114;52.314;8.910;2023-02-19T00:54:01;9.10;99.90
30308;DHT22;17114;52.314;8.910;2023-02-19T00:56:28;9.10;99.90
30308;DHT22;17114;52.314;8.910;2023-02-19T00:58:55;9.10;99.90
30308;DHT22;17114;52.314;8.910;2023-02-19T01:01:22;9.10;99.90
30308;DHT22;17114;52.314;8.910;2023-02-19T01:03:49;9.10;99.90
30308;DHT22;17114;52.314;8.910;2023-02-19T01:06:17;9.20;99.90
30308;DHT22;17114;52.314;8.910;2023-02-19T01:08:45;9.10;99.90
30308;DHT22;17114;52.314;8.910;2023-02-19T01:11:12;9.10;99.90
30308;DHT22;17114;52.314;8.910;2023-02-19T01:13:40;9.10;99.90
30308;DHT22;17114;52.314;8.910;2023-02-19T01:16:13;9.10;99.90
30308;DHT22;17114;52.314;8.910;2023-02-19T01:18:42;9.10;99.90
30308;DHT22;17114;52.314;8.910;2023-02-19T01:21:13;9.10;99.90
30308;DHT22;17114;52.314;8.910;2023-02-19T01:23:41;9.00;99.90
30308;DHT22;17114;52.314;8.910;2023-02-19T01:26:11;9.10;99.90
30308;DHT22;17114;52.314;8.910;2023-02-19T01:28:39;9.00;99.90
30308;DHT22;17114;52.314;8.910;2023-02-19T01:31:07;9.00;99.90
30308;DHT22;17114;52.314;8.910;2023-02-19T01:33:36;9.10;99.90
30308;DHT22;17114;52.314;8.910;2023-02-19T01:36:04;9.00;99.90
30308;DHT22;17114;52.314;8.910;2023-02-19T01:38:32;9.00;99.90
30308;DHT22;17114;52.314;8.910;2023-02-19T01:41:03;9.00;99.90
30308;DHT22;17114;52.314;8.910;2023-02-19T01:43:32;9.00;99.90
30308;DHT22;17114;52.314;8.910;2023-02-19T01:45:59;9.00;99.90
30308;DHT22;17114;52.314;8.910;2023-02-19T01:51:11;8.80;99.90
30308;DHT22;17114;52.314;8.910;2023-02-19T01:53:44;8.90;99.90
30308;DHT22;17114;52.314;8.910;2023-02-19T01:56:15;9.00;99.90
30308;DHT22;17114;52.314;8.910;2023-02-19T01:58:44;9.00;99.90
30308;DHT22;17114;52.314;8.910;2023-02-19T02:01:11;9.00;99.90
30308;DHT22;17114;52.314;8.910;2023-02-19T02:03:40;9.00;99.90
30308;DHT22;17114;52.314;8.910;2023-02-19T02:06:37;9.00;99.90
30308;DHT22;17114;52.314;8.910;2023-02-19T02:09:05;9.00;99.90
30308;DHT22;17114;52.314;8.910;2023-02-19T02:11:52;9.00;99.90
30308;DHT22;17114;52.314;8.910;2023-02-19T02:14:24;9.00;99.90
30308;DHT22;17114;52.314;8.910;2023-02-19T02:17:01;9.00;99.90
30308;DHT22;17114;52.314;8.910;2023-02-19T02:19:56;9.00;99.90
30308;DHT22;17114;52.314;8.910;2023-02-19T02:23:21;9.10;99.90
30308;DHT22;17114;52.314;8.910;2023-02-19T02:30:52;9.10;99.90
30308;DHT22;17114;52.314;8.910;2023-02-19T02:33:22;9.10;99.90
30308;DHT22;17114;52.314;8.910;2023-02-19T02:36:12;9.30;99.90
30308;DHT22;17114;52.314;8.910;2023-02-19T02:38:42;9.10;99.90
30308;DHT22;17114;52.314;8.910;2023-02-19T02:41:11;9.10;99.90
30308;DHT22;17114;52.314;8.910;2023-02-19T02:43:39;9.10;99.90
30308;DHT22;17114;52.314;8.910;2023-02-19T02:46:10;9.10;99.90
30308;DHT22;17114;52.314;8.910;2023-02-19T02:51:32;9.00;99.90
30308;DHT22;17114;52.314;8.910;2023-02-19T02:54:15;9.10;99.90
30308;DHT22;17114;52.314;8.910;2023-02-19T02:57:02;9.00;99.90
30308;DHT22;17114;52.314;8.910;2023-02-19T02:59:33;9.10;99.90
30308;DHT22;17114;52.314;8.910;2023-02-19T03:02:10;9.20;99.90
30308;DHT22;17114;52.314;8.910;2023-02-19T03:07:47;9.10;99.90
30308;DHT22;17114;52.314;8.910;2023-02-19T03:10:49;9.10;99.90
30308;DHT22;17114;52.314;8.910;2023-02-19T03:13:27;9.20;99.90
30308;DHT22;17114;52.314;8.910;2023-02-19T03:16:19;9.10;99.90
30308;DHT22;17114;52.314;8.910;2023-02-19T03:19:10;9.10;99.90
30308;DHT22;17114;52.314;8.910;2023-02-19T03:21:56;9.10;99.90
30308;DHT22;17114;52.314;8.910;2023-02-19T03:24:29;9.20;99.90
30308;DHT22;17114;52.314;8.910;2023-02-19T03:27:18;9.10;99.90
30308;DHT22;17114;52.314;8.910;2023-02-19T03:29:47;9.10;99.90
30308;DHT22;17114;52.314;8.910;2023-02-19T03:32:32;9.00;99.90
30308;DHT22;17114;52.314;8.910;2023-02-19T03:35:16;9.20;99.90
30308;DHT22;17114;52.314;8.910;2023-02-19T03:37:52;9.10;99.90
30308;DHT22;17114;52.314;8.910;2023-02-19T03:40:21;9.10;99.90
30308;DHT22;17114;52.314;8.910;2023-02-19T03:43:00;9.20;99.90
30308;DHT22;17114;52.314;8.910;2023-02-19T03:56:34;9.20;99.90
30308;DHT22;17114;52.314;8.910;2023-02-19T03:59:25;9.20;99.90
30308;DHT22;17114;52.314;8.910;2023-02-19T04:01:57;9.20;99.90
30308;DHT22;17114;52.314;8.910;2023-02-19T04:04:31;9.20;99.90
30308;DHT22;17114;52.314;8.910;2023-02-19T04:06:59;9.10;99.90
30308;DHT22;17114;52.314;8.910;2023-02-19T04:09:32;9.20;99.90
30308;DHT22;17114;52.314;8.910;2023-02-19T04:12:01;9.10;99.90
30308;DHT22;17114;52.314;8.910;2023-02-19T04:17:02;9.20;99.90
30308;DHT22;17114;52.314;8.910;2023-02-19T04:19:32;9.20;99.90
30308;DHT22;17114;52.314;8.910;2023-02-19T04:22:04;9.10;99.90
30308;DHT22;17114;52.314;8.910;2023-02-19T04:24:36;9.20;99.90
30308;DHT22;17114;52.314;8.910;2023-02-19T04:27:05;9.10;99.90
30308;DHT22;17114;52.314;8.910;2023-02-19T04:29:32;9.20;99.90
30308;DHT22;17114;52.314;8.910;2023-02-19T04:31:59;9.10;99.90
30308;DHT22;17114;52.314;8.910;2023-02-19T04:34:28;9.30;99.90
30308;DHT22;17114;52.314;8.910;2023-02-19T04:36:55;9.10;99.90
30308;DHT22;17114;52.314;8.910;2023-02-19T04:39:22;9.10;99.90
30308;DHT22;17114;52.314;8.910;2023-02-19T04:41:49;9.20;99.90
30308;DHT22;17114;52.314;8.910;2023-02-19T04:44:15;9.10;99.90
30308;DHT22;17114;52.314;8.910;2023-02-19T04:46:42;9.10;99.90
30308;DHT22;17114;52.314;8.910;2023-02-19T04:49:09;9.10;99.90
30308;DHT22;17114;52.314;8.910;2023-02-19T04:51:36;8.80;99.90
30308;DHT22;17114;52.314;8.910;2023-02-19T04:54:03;8.20;99.90
30308;DHT22;17114;52.314;8.910;2023-02-19T04:56:29;7.60;99.90
30308;DHT22;17114;52.314;8.910;2023-02-19T04:58:56;7.20;99.90
30308;DHT22;17114;52.314;8.910;2023-02-19T05:01:24;6.80;99.90
30308;DHT22;17114;52.314;8.910;2023-02-19T05:03:51;6.60;99.90
30308;DHT22;17114;52.314;8.910;2023-02-19T05:06:18;6.60;99.90
30308;DHT22;17114;52.314;8.910;2023-02-19T05:08:45;6.50;99.90
30308;DHT22;17114;52.314;8.910;2023-02-19T05:11:12;6.40;99.90
30308;DHT22;17114;52.314;8.910;2023-02-19T05:13:39;6.30;99.90
30308;DHT22;17114;52.314;8.910;2023-02-19T05:16:09;6.20;99.90
30308;DHT22;17114;52.314;8.910;2023-02-19T05:18:40;6.20;99.90
30308;DHT22;17114;52.314;8.910;2023-02-19T05:21:07;6.20;99.90
30308;DHT22;17114;52.314;8.910;2023-02-19T05:23:34;6.00;99.90
30308;DHT22;17114;52.314;8.910;2023-02-19T05:26:11;5.90;99.90
30308;DHT22;17114;52.314;8.910;2023-02-19T05:28:38;5.90;99.90
30308;DHT22;17114;52.314;8.910;2023-02-19T05:31:07;5.90;99.90
30308;DHT22;17114;52.314;8.910;2023-02-19T05:33:35;5.90;99.90
30308;DHT22;17114;52.314;8.910;2023-02-19T05:36:08;5.90;99.90
30308;DHT22;17114;52.314;8.910;2023-02-19T05:38:36;5.80;99.90
30308;DHT22;17114;52.314;8.910;2023-02-19T05:41:29;5.80;99.90
30308;DHT22;17114;52.314;8.910;2023-02-19T05:43:57;5.80;99.90
30308;DHT22;17114;52.314;8.910;2023-02-19T05:46:27;5.80;99.90
30308;DHT22;17114;52.314;8.910;2023-02-19T05:48:56;5.80;99.90
30308;DHT22;17114;52.314;8.910;2023-02-19T05:51:25;5.80;99.90
30308;DHT22;17114;52.314;8.910;2023-02-19T05:53:53;5.80;99.90
30308;DHT22;17114;52.314;8.910;2023-02-19T05:56:35;5.80;99.90
30308;DHT22;17114;52.314;8.910;2023-02-19T06:01:35;5.80;99.90
30308;DHT22;17114;52.314;8.910;2023-02-19T06:04:02;5.70;99.90
30308;DHT22;17114;52.314;8.910;2023-02-19T06:06:29;5.70;99.90
30308;DHT22;17114;52.314;8.910;2023-02-19T06:08:56;5.70;99.90
30308;DHT22;17114;52.314;8.910;2023-02-19T06:11:23;5.60;99.90
30308;DHT22;17114;52.314;8.910;2023-02-19T06:13:50;5.50;99.90
30308;DHT22;17114;52.314;8.910;2023-02-19T06:16:18;5.50;99.90
30308;DHT22;17114;52.314;8.910;2023-02-19T06:18:45;5.50;99.90
30308;DHT22;17114;52.314;8.910;2023-02-19T06:21:13;5.50;99.90
30308;DHT22;17114;52.314;8.910;2023-02-19T06:23:41;5.50;99.90
30308;DHT22;17114;52.314;8.910;2023-02-19T06:26:19;5.40;99.90
30308;DHT22;17114;52.314;8.910;2023-02-19T06:28:47;5.40;99.90
30308;DHT22;17114;52.314;8.910;2023-02-19T06:31:16;5.30;99.90
30308;DHT22;17114;52.314;8.910;2023-02-19T06:33:44;5.20;99.90
30308;DHT22;17114;52.314;8.910;2023-02-19T06:36:18;5.20;99.90
30308;DHT22;17114;52.314;8.910;2023-02-19T06:38:45;5.20;99.90
30308;DHT22;17114;52.314;8.910;2023-02-19T06:41:12;5.10;99.90
30308;DHT22;17114;52.314;8.910;2023-02-19T06:43:40;5.00;99.90
30308;DHT22;17114;52.314;8.910;2023-02-19T06:46:09;5.00;99.90
30308;DHT22;17114;52.314;8.910;2023-02-19T06:48:38;5.00;99.90
30308;DHT22;17114;52.314;8.910;2023-02-19T06:51:05;4.90;99.90
30308;DHT22;17114;52.314;8.910;2023-02-19T06:53:32;4.90;99.90
30308;DHT22;17114;52.314;8.910;2023-02-19T06:56:02;4.80;99.90
30308;DHT22;17114;52.314;8.910;2023-02-19T06:58:30;4.80;99.90
30308;DHT22;17114;52.314;8.910;2023-02-19T07:00:59;4.80;99.90
30308;DHT22;17114;52.314;8.910;2023-02-19T07:03:27;4.80;99.90
30308;DHT22;17114;52.314;8.910;2023-02-19T07:05:54;4.70;99.90
30308;DHT22;17114;52.314;8.910;2023-02-19T07:08:24;4.80;99.90
30308;DHT22;17114;52.314;8.910;2023-02-19T07:10:55;4.80;99.90
30308;DHT22;17114;52.314;8.910;2023-02-19T07:13:24;4.80;99.90
30308;DHT22;17114;52.314;8.910;2023-02-19T07:16:00;4.70;99.90
30308;DHT22;17114;52.314;8.910;2023-02-19T07:18:30;4.70;99.90
30308;DHT22;17114;52.314;8.910;2023-02-19T07:23:29;4.70;99.90
30308;DHT22;17114;52.314;8.910;2023-02-19T07:25:57;4.70;99.90
30308;DHT22;17114;52.314;8.910;2023-02-19T07:28:24;4.60;99.90
30308;DHT22;17114;52.314;8.910;2023-02-19T07:30:51;4.60;99.90
30308;DHT22;17114;52.314;8.910;2023-02-19T07:33:22;4.70;99.90
30308;DHT22;17114;52.314;8.910;2023-02-19T07:35:49;4.80;99.90
30308;DHT22;17114;52.314;8.910;2023-02-19T07:38:19;4.70;99.90
30308;DHT22;17114;52.314;8.910;2023-02-19T07:40:57;4.70;99.90
30308;DHT22;17114;52.314;8.910;2023-02-19T07:43:27;4.70;99.90
30308;DHT22;17114;52.314;8.910;2023-02-19T07:45:54;4.70;99.90
30308;DHT22;17114;52.314;8.910;2023-02-19T07:48:22;4.70;99.90
30308;DHT22;17114;52.314;8.910;2023-02-19T07:50:55;4.80;99.90
30308;DHT22;17114;52.314;8.910;2023-02-19T07:53:23;4.70;99.90
30308;DHT22;17114;52.314;8.910;2023-02-19T07:55:50;4.70;99.90
30308;DHT22;17114;52.314;8.910;2023-02-19T07:58:18;4.70;99.90
30308;DHT22;17114;52.314;8.910;2023-02-19T08:00:45;4.70;99.90
30308;DHT22;17114;52.314;8.910;2023-02-19T08:03:12;4.70;99.90
30308;DHT22;17114;52.314;8.910;2023-02-19T08:05:41;4.70;99.90
30308;DHT22;17114;52.314;8.910;2023-02-19T08:08:11;4.70;99.90
30308;DHT22;17114;52.314;8.910;2023-02-19T08:10:39;4.80;99.90
30308;DHT22;17114;52.314;8.910;2023-02-19T08:13:26;4.90;99.90
30308;DHT22;17114;52.314;8.910;2023-02-19T08:18:43;5.00;99.90
30308;DHT22;17114;52.314;8.910;2023-02-19T08:21:10;5.00;99.90
30308;DHT22;17114;52.314;8.910;2023-02-19T08:23:41;5.10;99.90
30308;DHT22;17114;52.314;8.910;2023-02-19T08:26:16;5.10;99.90
30308;DHT22;17114;52.314;8.910;2023-02-19T08:28:45;5.10;99.90
30308;DHT22;17114;52.314;8.910;2023-02-19T08:31:31;5.10;99.90
30308;DHT22;17114;52.314;8.910;2023-02-19T08:34:04;5.10;99.90
30308;DHT22;17114;52.314;8.910;2023-02-19T08:36:33;5.20;99.90
30308;DHT22;17114;52.314;8.910;2023-02-19T08:39:13;5.30;99.90
30308;DHT22;17114;52.314;8.910;2023-02-19T08:41:50;5.40;99.90
30308;DHT22;17114;52.314;8.910;2023-02-19T08:44:19;5.50;99.90
30308;DHT22;17114;52.314;8.910;2023-02-19T08:46:48;5.60;99.90
30308;DHT22;17114;52.314;8.910;2023-02-19T08:49:15;5.80;99.90
30308;DHT22;17114;52.314;8.910;2023-02-19T08:51:43;5.80;99.90
30308;DHT22;17114;52.314;8.910;2023-02-19T08:54:11;5.90;99.90
30308;DHT22;17114;52.314;8.910;2023-02-19T08:56:38;6.00;99.90
30308;DHT22;17114;52.314;8.910;2023-02-19T08:59:05;6.10;99.90
30308;DHT22;17114;52.314;8.910;2023-02-19T09:01:33;6.10;99.90
30308;DHT22;17114;52.314;8.910;2023-02-19T09:04:00;6.10;99.90
30308;DHT22;17114;52.314;8.910;2023-02-19T09:06:27;6.20;99.90
30308;DHT22;17114;52.314;8.910;2023-02-19T09:08:54;6.30;99.90
30308;DHT22;17114;52.314;8.910;2023-02-19T09:11:21;6.40;99.90
30308;DHT22;17114;52.314;8.910;2023-02-19T09:13:48;6.40;99.90
30308;DHT22;17114;52.314;8.910;2023-02-19T09:16:15;6.30;99.90
30308;DHT22;17114;52.314;8.910;2023-02-19T09:18:42;6.30;99.90
30308;DHT22;17114;52.314;8.910;2023-02-19T09:21:11;6.40;99.90
30308;DHT22;17114;52.314;8.910;2023-02-19T09:23:38;6.40;99.90
30308;DHT22;17114;52.314;8.910;2023-02-19T09:26:06;6.30;99.90
30308;DHT22;17114;52.314;8.910;2023-02-19T09:28:36;6.20;99.90
30308;DHT22;17114;52.314;8.910;2023-02-19T09:31:12;6.30;99.90
30308;DHT22;17114;52.314;8.910;2023-02-19T09:33:47;6.50;99.90
30308;DHT22;17114;52.314;8.910;2023-02-19T09:36:15;6.80;99.90
30308;DHT22;17114;52.314;8.910;2023-02-19T09:38:44;6.80;99.90
30308;DHT22;17114;52.314;8.910;2023-02-19T09:41:21;6.80;99.90
30308;DHT22;17114;52.314;8.910;2023-02-19T09:43:50;6.70;99.90
30308;DHT22;17114;52.314;8.910;2023-02-19T09:46:25;6.80;99.90
30308;DHT22;17114;52.314;8.910;2023-02-19T09:49:01;6.80;99.90
30308;DHT22;17114;52.314;8.910;2023-02-19T09:51:33;6.90;99.90
30308;DHT22;17114;52.314;8.910;2023-02-19T09:54:00;6.90;99.90
30308;DHT22;17114;52.314;8.910;2023-02-19T09:56:30;7.00;99.90
30308;DHT22;17114;52.314;8.910;2023-02-19T09:58:58;7.10;99.90
30308;DHT22;17114;52.314;8.910;2023-02-19T10:01:29;7.30;99.90
30308;DHT22;17114;52.314;8.910;2023-02-19T10:03:57;7.60;99.90
30308;DHT22;17114;52.314;8.910;2023-02-19T10:06:26;8.10;99.90
30308;DHT22;17114;52.314;8.910;2023-02-19T10:09:22;8.90;99.90
30308;DHT22;17114;52.314;8.910;2023-02-19T10:11:53;9.40;99.90
30308;DHT22;17114;52.314;8.910;2023-02-19T10:14:35;9.60;99.90
30308;DHT22;17114;52.314;8.910;2023-02-19T10:17:05;9.50;99.90
30308;DHT22;17114;52.314;8.910;2023-02-19T10:19:33;9.10;99.90
30308;DHT22;17114;52.314;8.910;2023-02-19T10:22:02;8.80;99.90
30308;DHT22;17114;52.314;8.910;2023-02-19T10:24:30;8.50;99.90
30308;DHT22;17114;52.314;8.910;2023-02-19T10:26:57;8.50;99.90
30308;DHT22;17114;52.314;8.910;2023-02-19T10:29:24;8.70;99.90
30308;DHT22;17114;52.314;8.910;2023-02-19T10:34:39;9.40;99.90
30308;DHT22;17114;52.314;8.910;2023-02-19T10:37:11;9.80;99.90
30308;DHT22;17114;52.314;8.910;2023-02-19T10:39:47;10.00;99.90
30308;DHT22;17114;52.314;8.910;2023-02-19T10:42:20;10.10;99.90
30308;DHT22;17114;52.314;8.910;2023-02-19T10:44:59;10.20;99.90
30308;DHT22;17114;52.314;8.910;2023-02-19T10:47:29;10.20;99.90
30308;DHT22;17114;52.314;8.910;2023-02-19T10:49:59;10.00;99.90
30308;DHT22;17114;52.314;8.910;2023-02-19T10:52:32;9.70;99.90
30308;DHT22;17114;52.314;8.910;2023-02-19T10:55:23;9.40;99.90
30308;DHT22;17114;52.314;8.910;2023-02-19T10:57:51;9.10;99.90
30308;DHT22;17114;52.314;8.910;2023-02-19T11:00:27;8.60;99.90
30308;DHT22;17114;52.314;8.910;2023-02-19T11:03:21;8.30;99.90
30308;DHT22;17114;52.314;8.910;2023-02-19T11:05:56;8.00;99.90
30308;DHT22;17114;52.314;8.910;2023-02-19T11:08:25;7.80;99.90
30308;DHT22;17114;52.314;8.910;2023-02-19T11:10:52;7.80;99.90
30308;DHT22;17114;52.314;8.910;2023-02-19T11:13:28;7.80;99.90
30308;DHT22;17114;52.314;8.910;2023-02-19T11:15:59;7.70;99.90
30308;DHT22;17114;52.314;8.910;2023-02-19T11:18:30;7.60;99.90
30308;DHT22;17114;52.314;8.910;2023-02-19T11:21:03;7.70;99.90
30308;DHT22;17114;52.314;8.910;2023-02-19T11:26:02;8.30;99.90
30308;DHT22;17114;52.314;8.910;2023-02-19T11:28:34;8.80;99.90
30308;DHT22;17114;52.314;8.910;2023-02-19T11:36:37;8.60;99.90
30308;DHT22;17114;52.314;8.910;2023-02-19T11:41:50;8.30;99.90
30308;DHT22;17114;52.314;8.910;2023-02-19T12:09:35;9.30;99.90
30308;DHT22;17114;52.314;8.910;2023-02-19T12:21:37;8.80;99.90
30308;DHT22;17114;52.314;8.910;2023-02-19T12:30:24;8.20;99.90
30308;DHT22;17114;52.314;8.910;2023-02-19T12:32:53;8.20;99.90
30308;DHT22;17114;52.314;8.910;2023-02-19T12:38:20;9.40;99.90
30308;DHT22;17114;52.314;8.910;2023-02-19T12:41:25;9.70;99.90
30308;DHT22;17114;52.314;8.910;2023-02-19T12:46:55;9.20;99.90
30308;DHT22;17114;52.314;8.910;2023-02-19T12:49:37;8.60;99.90
30308;DHT22;17114;52.314;8.910;2023-02-19T12:54:48;8.10;99.90
30308;DHT22;17114;52.314;8.910;2023-02-19T12:57:20;7.90;99.90
30308;DHT22;17114;52.314;8.910;2023-02-19T13:00:48;7.90;99.90
30308;DHT22;17114;52.314;8.910;2023-02-19T13:03:11;7.80;99.90
30308;DHT22;17114;52.314;8.910;2023-02-19T13:05:54;7.60;99.90
30308;DHT22;17114;52.314;8.910;2023-02-19T13:08:44;7.50;99.90
30308;DHT22;17114;52.314;8.910;2023-02-19T13:11:41;7.50;99.90
30308;DHT22;17114;52.314;8.910;2023-02-19T13:16:47;8.00;99.90
30308;DHT22;17114;52.314;8.910;2023-02-19T13:19:16;8.00;99.90
30308;DHT22;17114;52.314;8.910;2023-02-19T13:21:46;8.10;99.90
30308;DHT22;17114;52.314;8.910;2023-02-19T13:24:39;8.20;99.90
30308;DHT22;17114;52.314;8.910;2023-02-19T13:27:35;8.40;99.90
30308;DHT22;17114;52.314;8.910;2023-02-19T13:35:58;8.60;99.90
30308;DHT22;17114;52.314;8.910;2023-02-19T13:38:41;8.50;99.90
30308;DHT22;17114;52.314;8.910;2023-02-19T13:41:30;8.50;99.90
30308;DHT22;17114;52.314;8.910;2023-02-19T13:44:03;8.50;99.90
30308;DHT22;17114;52.314;8.910;2023-02-19T13:46:41;8.60;99.90
30308;DHT22;17114;52.314;8.910;2023-02-19T13:49:38;8.60;99.90
30308;DHT22;17114;52.314;8.910;2023-02-19T14:01:00;8.70;99.90
30308;DHT22;17114;52.314;8.910;2023-02-19T14:06:11;8.60;99.90
30308;DHT22;17114;52.314;8.910;2023-02-19T14:11:17;8.40;99.90
30308;DHT22;17114;52.314;8.910;2023-02-19T14:33:38;8.00;99.90
30308;DHT22;17114;52.314;8.910;2023-02-19T14:36:21;8.00;99.90
30308;DHT22;17114;52.314;8.910;2023-02-19T14:38:54;7.90;99.90
30308;DHT22;17114;52.314;8.910;2023-02-19T14:41:22;7.90;99.90
30308;DHT22;17114;52.314;8.910;2023-02-19T14:43:52;7.90;99.90
30308;DHT22;17114;52.314;8.910;2023-02-19T14:46:38;7.80;99.90
30308;DHT22;17114;52.314;8.910;2023-02-19T14:49:20;7.80;99.90
30308;DHT22;17114;52.314;8.910;2023-02-19T14:51:54;7.80;99.90
30308;DHT22;17114;52.314;8.910;2023-02-19T14:57:20;7.70;99.90
30308;DHT22;17114;52.314;8.910;2023-02-19T15:00:00;7.60;99.90
30308;DHT22;17114;52.314;8.910;2023-02-19T15:02:29;7.50;99.90
30308;DHT22;17114;52.314;8.910;2023-02-19T15:04:57;7.40;99.90
30308;DHT22;17114;52.314;8.910;2023-02-19T15:07:28;7.40;99.90
30308;DHT22;17114;52.314;8.910;2023-02-19T15:10:00;7.30;99.90
30308;DHT22;17114;52.314;8.910;2023-02-19T15:12:47;7.20;99.90
30308;DHT22;17114;52.314;8.910;2023-02-19T15:15:26;7.20;99.90
30308;DHT22;17114;52.314;8.910;2023-02-19T15:17:56;7.10;99.90
30308;DHT22;17114;52.314;8.910;2023-02-19T15:20:25;7.10;99.90
30308;DHT22;17114;52.314;8.910;2023-02-19T15:22:55;7.10;99.90
30308;DHT22;17114;52.314;8.910;2023-02-19T15:25:24;7.00;99.90
30308;DHT22;17114;52.314;8.910;2023-02-19T15:27:52;7.00;99.90
30308;DHT22;17114;52.314;8.910;2023-02-19T15:30:23;6.90;99.90
30308;DHT22;17114;52.314;8.910;2023-02-19T15:32:53;6.90;99.90
30308;DHT22;17114;52.314;8.910;2023-02-19T15:35:21;6.90;99.90
30308;DHT22;17114;52.314;8.910;2023-02-19T15:37:50;6.80;99.90
30308;DHT22;17114;52.314;8.910;2023-02-19T15:40:27;6.80;99.90
30308;DHT22;17114;52.314;8.910;2023-02-19T15:42:56;6.80;99.90
30308;DHT22;17114;52.314;8.910;2023-02-19T15:45:29;6.70;99.90
30308;DHT22;17114;52.314;8.910;2023-02-19T15:48:05;6.60;99.90
30308;DHT22;17114;52.314;8.910;2023-02-19T15:50:36;6.60;99.90
30308;DHT22;17114;52.314;8.910;2023-02-19T15:53:22;6.50;99.90
30308;DHT22;17114;52.314;8.910;2023-02-19T15:58:48;6.40;99.90
30308;DHT22;17114;52.314;8.910;2023-02-19T16:01:28;6.40;99.90
30308;DHT22;17114;52.314;8.910;2023-02-19T16:03:56;6.40;99.90
30308;DHT22;17114;52.314;8.910;2023-02-19T16:06:25;6.30;99.90
30308;DHT22;17114;52.314;8.910;2023-02-19T16:09:02;6.30;99.90
30308;DHT22;17114;52.314;8.910;2023-02-19T16:12:00;6.20;99.90
30308;DHT22;17114;52.314;8.910;2023-02-19T16:14:31;6.20;99.90
30308;DHT22;17114;52.314;8.910;2023-02-19T16:17:12;6.20;99.90
30308;DHT22;17114;52.314;8.910;2023-02-19T16:19:58;6.10;99.90
30308;DHT22;17114;52.314;8.910;2023-02-19T16:22:29;6.00;99.90
30308;DHT22;17114;52.314;8.910;2023-02-19T16:25:02;6.00;99.90
30308;DHT22;17114;52.314;8.910;2023-02-19T16:27:38;5.90;99.90
30308;DHT22;17114;52.314;8.910;2023-02-19T16:32:34;5.90;99.90
30308;DHT22;17114;52.314;8.910;2023-02-19T16:35:01;5.90;99.90
30308;DHT22;17114;52.314;8.910;2023-02-19T16:45:21;5.70;99.90
30308;DHT22;17114;52.314;8.910;2023-02-19T16:47:48;5.60;99.90
30308;DHT22;17114;52.314;8.910;2023-02-19T16:50:19;5.60;99.90
30308;DHT22;17114;52.314;8.910;2023-02-19T16:55:18;5.50;99.90
30308;DHT22;17114;52.314;8.910;2023-02-19T16:57:45;5.40;99.90
30308;DHT22;17114;52.314;8.910;2023-02-19T17:02:49;5.20;99.90
30308;DHT22;17114;52.314;8.910;2023-02-19T17:05:18;5.20;99.90
30308;DHT22;17114;52.314;8.910;2023-02-19T17:07:45;5.20;99.90
30308;DHT22;17114;52.314;8.910;2023-02-19T17:10:16;5.20;99.90
30308;DHT22;17114;52.314;8.910;2023-02-19T17:12:45;5.10;99.90
30308;DHT22;17114;52.314;8.910;2023-02-19T17:15:12;5.00;99.90
30308;DHT22;17114;52.314;8.910;2023-02-19T17:17:39;5.00;99.90
30308;DHT22;17114;52.314;8.910;2023-02-19T17:20:28;5.00;99.90
30308;DHT22;17114;52.314;8.910;2023-02-19T17:22:56;5.00;99.90
30308;DHT22;17114;52.314;8.910;2023-02-19T17:25:23;5.00;99.90
30308;DHT22;17114;52.314;8.910;2023-02-19T17:27:50;5.10;99.90
30308;DHT22;17114;52.314;8.910;2023-02-19T17:30:24;5.10;99.90
30308;DHT22;17114;52.314;8.910;2023-02-19T17:32:53;5.20;99.90
30308;DHT22;17114;52.314;8.910;2023-02-19T17:37:49;5.30;99.90
30308;DHT22;17114;52.314;8.910;2023-02-19T17:40:28;5.40;99.90
30308;DHT22;17114;52.314;8.910;2023-02-19T17:42:59;5.40;99.90
30308;DHT22;17114;52.314;8.910;2023-02-19T17:45:26;5.50;99.90
30308;DHT22;17114;52.314;8.910;2023-02-19T17:47:53;5.60;99.90
30308;DHT22;17114;52.314;8.910;2023-02-19T17:50:24;5.60;99.90
30308;DHT22;17114;52.314;8.910;2023-02-19T17:52:51;5.60;99.90
30308;DHT22;17114;52.314;8.910;2023-02-19T17:55:18;5.70;99.90
30308;DHT22;17114;52.314;8.910;2023-02-19T17:57:46;5.70;99.90
30308;DHT22;17114;52.314;8.910;2023-02-19T18:00:22;5.70;99.90
30308;DHT22;17114;52.314;8.910;2023-02-19T18:02:50;5.80;99.90
30308;DHT22;17114;52.314;8.910;2023-02-19T18:05:17;5.80;99.90
30308;DHT22;17114;52.314;8.910;2023-02-19T18:07:46;5.80;99.90
30308;DHT22;17114;52.314;8.910;2023-02-19T18:10:15;5.90;99.90
30308;DHT22;17114;52.314;8.910;2023-02-19T18:12:42;5.90;99.90
30308;DHT22;17114;52.314;8.910;2023-02-19T18:15:17;5.90;99.90
30308;DHT22;17114;52.314;8.910;2023-02-19T18:17:45;5.90;99.90
30308;DHT22;17114;52.314;8.910;2023-02-19T18:20:38;5.90;99.90
30308;DHT22;17114;52.314;8.910;2023-02-19T18:23:05;5.90;99.90
30308;DHT22;17114;52.314;8.910;2023-02-19T18:25:32;5.90;99.90
30308;DHT22;17114;52.314;8.910;2023-02-19T18:27:59;5.90;99.90
30308;DHT22;17114;52.314;8.910;2023-02-19T18:30:26;6.00;99.90
30308;DHT22;17114;52.314;8.910;2023-02-19T18:32:54;6.00;99.90
30308;DHT22;17114;52.314;8.910;2023-02-19T18:35:22;6.00;99.90
30308;DHT22;17114;52.314;8.910;2023-02-19T18:37:50;6.10;99.90
30308;DHT22;17114;52.314;8.910;2023-02-19T18:40:21;6.00;99.90
30308;DHT22;17114;52.314;8.910;2023-02-19T18:42:48;6.10;99.90
30308;DHT22;17114;52.314;8.910;2023-02-19T18:45:15;6.00;99.90
30308;DHT22;17114;52.314;8.910;2023-02-19T18:47:46;6.10;99.90
30308;DHT22;17114;52.314;8.910;2023-02-19T18:50:14;6.00;99.90
30308;DHT22;17114;52.314;8.910;2023-02-19T18:52:41;6.10;99.90
30308;DHT22;17114;52.314;8.910;2023-02-19T18:55:09;6.10;99.90
30308;DHT22;17114;52.314;8.910;2023-02-19T18:57:36;6.10;99.90
30308;DHT22;17114;52.314;8.910;2023-02-19T19:00:04;6.10;99.90